createdAt,value
2018-08-24T00:01:35.192Z,99461.34
2018-08-24T00:04:06.860Z,99449.21
2018-08-24T00:06:34.745Z,99453.27
2018-08-24T00:09:02.780Z,99454.95
2018-08-24T00:11:30.459Z,99464.81
2018-08-24T00:13:58.120Z,99461.00
2018-08-24T00:16:31.345Z,99470.34
2018-08-24T00:18:58.997Z,99460.50
2018-08-24T00:21:26.665Z,99459.95
2018-08-24T00:23:54.301Z,99457.18
2018-08-24T00:26:21.981Z,99459.63
2018-08-24T00:28:49.623Z,99462.29
2018-08-24T00:31:17.277Z,99462.55
2018-08-24T00:33:50.210Z,99459.01
2018-08-24T00:36:17.853Z,99462.02
2018-08-24T00:38:45.609Z,99470.25
2018-08-24T00:41:13.353Z,99464.19
2018-08-24T00:43:41.025Z,99465.83
2018-08-24T00:46:08.721Z,99469.09
2018-08-24T00:48:36.593Z,99459.80
2018-08-24T00:51:04.325Z,99455.17
2018-08-24T00:53:31.990Z,99449.57
2018-08-24T00:55:59.649Z,99446.44
2018-08-24T00:58:27.297Z,99441.98
2018-08-24T01:01:00.846Z,99447.92
2018-08-24T01:03:29.030Z,99446.05
2018-08-24T01:05:56.697Z,99443.91
2018-08-24T01:08:24.385Z,99446.94
2018-08-24T01:10:52.049Z,99444.78
2018-08-24T01:13:19.700Z,99446.11
2018-08-24T01:15:52.368Z,99443.62
2018-08-24T01:18:22.160Z,99452.42
2018-08-24T01:20:51.153Z,99448.02
2018-08-24T01:23:21.380Z,99449.38
2018-08-24T01:25:49.237Z,99447.48
2018-08-24T01:28:17.848Z,99449.93
2018-08-24T01:30:46.533Z,99438.67
2018-08-24T01:33:14.317Z,99440.09
2018-08-24T01:35:41.978Z,99432.16
2018-08-24T01:38:09.910Z,99434.09
2018-08-24T01:40:37.673Z,99433.53
2018-08-24T01:43:05.518Z,99427.73
2018-08-24T01:45:33.209Z,99422.48
2018-08-24T01:48:00.853Z,99423.30
2018-08-24T01:50:28.513Z,99420.25
2018-08-24T01:52:56.201Z,99422.63
2018-08-24T01:55:23.845Z,99419.91
2018-08-24T01:57:51.501Z,99428.40
2018-08-24T02:00:19.209Z,99425.09
2018-08-24T02:02:46.874Z,99426.22
2018-08-24T02:05:14.565Z,99430.89
2018-08-24T02:07:42.302Z,99431.36
2018-08-24T02:10:15.462Z,99427.28
2018-08-24T02:12:48.644Z,99438.73
2018-08-24T02:15:16.385Z,99436.80
2018-08-24T02:17:49.648Z,99440.55
2018-08-24T02:20:22.706Z,99440.70
2018-08-24T02:22:53.978Z,99448.10
2018-08-24T02:25:22.135Z,99446.02
2018-08-24T02:27:49.789Z,99443.52
2018-08-24T02:30:17.437Z,99446.55
2018-08-24T02:32:45.105Z,99447.63
2018-08-24T02:35:12.761Z,99443.79
2018-08-24T02:37:40.485Z,99442.98
2018-08-24T02:40:08.149Z,99445.70
2018-08-24T02:42:35.793Z,99437.13
2018-08-24T02:45:03.700Z,99435.49
2018-08-24T02:47:31.301Z,99433.55
2018-08-24T02:49:58.981Z,99443.27
2018-08-24T02:52:26.633Z,99434.56
2018-08-24T02:54:54.318Z,99435.23
2018-08-24T02:57:21.969Z,99435.05
2018-08-24T02:59:49.645Z,99432.45
2018-08-24T03:02:17.338Z,99433.38
2018-08-24T03:04:44.988Z,99442.60
2018-08-24T03:07:12.670Z,99436.00
2018-08-24T03:09:40.314Z,99439.56
2018-08-24T03:12:07.981Z,99443.41
2018-08-24T03:14:35.637Z,99441.23
2018-08-24T03:17:09.094Z,99443.70
2018-08-24T03:19:36.769Z,99434.34
2018-08-24T03:22:04.445Z,99435.67
2018-08-24T03:24:32.142Z,99441.44
2018-08-24T03:26:59.817Z,99440.28
2018-08-24T03:29:27.794Z,99443.84
2018-08-24T03:31:55.523Z,99440.56
2018-08-24T03:34:23.190Z,99438.32
2018-08-24T03:36:50.912Z,99438.38
2018-08-24T03:39:18.562Z,99438.17
2018-08-24T03:41:46.234Z,99430.94
2018-08-24T03:44:13.925Z,99425.92
2018-08-24T03:46:41.565Z,99426.56
2018-08-24T03:49:09.265Z,99428.27
2018-08-24T03:51:37.055Z,99431.11
2018-08-24T03:54:20.946Z,99433.98
2018-08-24T03:56:53.758Z,99435.41
2018-08-24T03:59:21.807Z,99434.50
2018-08-24T04:01:49.527Z,99424.46
2018-08-24T04:04:24.120Z,99431.69
2018-08-24T04:06:51.817Z,99423.22
2018-08-24T04:09:19.457Z,99421.45
2018-08-24T04:11:47.173Z,99421.45
2018-08-24T04:14:14.829Z,99414.67
2018-08-24T04:16:47.868Z,99421.81
2018-08-24T04:19:21.068Z,99419.35
2018-08-24T04:21:48.725Z,99419.13
2018-08-24T04:24:16.426Z,99407.66
2018-08-24T04:26:44.121Z,99408.39
2018-08-24T04:29:11.789Z,99408.17
2018-08-24T04:31:39.457Z,99405.39
2018-08-24T04:34:07.133Z,99405.48
2018-08-24T04:36:35.365Z,99402.12
2018-08-24T04:39:04.153Z,99398.96
2018-08-24T04:41:32.176Z,99382.46
2018-08-24T04:43:59.878Z,99395.23
2018-08-24T04:46:27.527Z,99398.87
2018-08-24T04:48:55.230Z,99403.28
2018-08-24T04:51:23.031Z,99395.33
2018-08-24T04:53:50.778Z,99399.11
2018-08-24T04:56:18.455Z,99399.55
2018-08-24T04:58:46.117Z,99398.03
2018-08-24T05:01:13.801Z,99396.06
2018-08-24T05:03:41.537Z,99402.95
2018-08-24T05:06:09.222Z,99399.17
2018-08-24T05:08:36.973Z,99406.72
2018-08-24T05:11:04.741Z,99405.71
2018-08-24T05:13:32.377Z,99407.14
2018-08-24T05:16:00.453Z,99401.73
2018-08-24T05:18:28.141Z,99403.56
2018-08-24T05:20:55.858Z,99399.27
2018-08-24T05:23:23.622Z,99393.84
2018-08-24T05:25:51.406Z,99390.80
2018-08-24T05:28:19.088Z,99400.08
2018-08-24T05:30:46.745Z,99397.96
2018-08-24T05:33:14.506Z,99392.03
2018-08-24T05:35:42.246Z,99388.63
2018-08-24T05:38:09.881Z,99391.75
2018-08-24T05:40:37.846Z,99396.59
2018-08-24T05:43:05.547Z,99402.33
2018-08-24T05:45:33.277Z,99407.30
2018-08-24T05:48:00.933Z,99413.67
2018-08-24T05:50:28.729Z,99409.28
2018-08-24T05:52:56.553Z,99417.75
2018-08-24T05:55:24.257Z,99420.12
2018-08-24T05:57:51.985Z,99423.81
2018-08-24T06:00:24.127Z,99420.55
2018-08-24T06:02:51.816Z,99424.72
2018-08-24T06:05:19.473Z,99432.33
2018-08-24T06:07:47.193Z,99430.31
2018-08-24T06:10:14.854Z,99429.61
2018-08-24T06:12:42.520Z,99423.34
2018-08-24T06:15:10.289Z,99424.74
2018-08-24T06:17:43.387Z,99424.64
2018-08-24T06:20:11.075Z,99427.28
2018-08-24T06:22:39.041Z,99428.11
2018-08-24T06:25:06.821Z,99436.48
2018-08-24T06:27:34.531Z,99433.08
2018-08-24T06:30:02.216Z,99430.81
2018-08-24T06:32:29.959Z,99437.17
2018-08-24T06:34:57.669Z,99432.38
2018-08-24T06:37:25.309Z,99432.72
2018-08-24T06:39:52.961Z,99440.05
2018-08-24T06:42:20.661Z,99437.48
2018-08-24T06:44:48.393Z,99440.43
2018-08-24T06:47:16.103Z,99431.09
2018-08-24T06:49:44.028Z,99431.16
2018-08-24T06:52:11.685Z,99425.55
2018-08-24T06:54:39.337Z,99424.50
2018-08-24T06:57:07.078Z,99426.06
2018-08-24T06:59:34.763Z,99432.85
2018-08-24T07:02:02.418Z,99427.11
2018-08-24T07:04:30.086Z,99432.77
2018-08-24T07:06:57.750Z,99432.46
2018-08-24T07:09:25.501Z,99426.12
2018-08-24T07:11:53.174Z,99436.04
2018-08-24T07:14:20.842Z,99427.20
2018-08-24T07:16:51.730Z,99426.84
2018-08-24T07:19:19.394Z,99427.59
2018-08-24T07:21:47.067Z,99426.12
2018-08-24T07:24:14.757Z,99426.38
2018-08-24T07:26:42.478Z,99426.84
2018-08-24T07:29:10.150Z,99435.13
2018-08-24T07:31:37.809Z,99428.41
2018-08-24T07:34:05.533Z,99433.19
2018-08-24T07:36:33.204Z,99430.63
2018-08-24T07:39:00.865Z,99438.17
2018-08-24T07:41:29.523Z,99439.30
2018-08-24T07:43:57.201Z,99442.08
2018-08-24T07:46:25.171Z,99434.54
2018-08-24T07:48:52.894Z,99426.89
2018-08-24T07:51:20.575Z,99435.08
2018-08-24T07:53:48.260Z,99425.88
2018-08-24T07:56:15.948Z,99423.70
2018-08-24T07:58:43.627Z,99418.11
2018-08-24T08:01:11.364Z,99420.40
2018-08-24T08:03:39.056Z,99424.02
2018-08-24T08:06:06.745Z,99418.83
2018-08-24T08:08:34.440Z,99426.75
2018-08-24T08:11:02.090Z,99414.62
2018-08-24T08:13:29.763Z,99424.17
2018-08-24T08:15:57.450Z,99415.32
2018-08-24T08:18:25.099Z,99420.31
2018-08-24T08:20:52.792Z,99415.55
2018-08-24T08:23:20.481Z,99411.22
2018-08-24T08:25:48.301Z,99410.26
2018-08-24T08:28:16.064Z,99406.44
2018-08-24T08:30:43.757Z,99411.06
2018-08-24T08:33:11.421Z,99407.75
2018-08-24T08:35:39.075Z,99392.45
2018-08-24T08:38:06.930Z,99394.67
2018-08-24T08:40:34.585Z,99396.08
2018-08-24T08:43:02.240Z,99393.86
2018-08-24T08:45:29.986Z,99389.44
2018-08-24T08:47:57.613Z,99389.49
2018-08-24T08:50:25.261Z,99384.77
2018-08-24T08:52:54.015Z,99382.81
2018-08-24T08:55:21.712Z,99376.84
2018-08-24T08:57:49.397Z,99377.31
2018-08-24T09:00:17.081Z,99367.39
2018-08-24T09:02:44.740Z,99372.62
2018-08-24T09:05:12.425Z,99369.46
2018-08-24T09:07:40.125Z,99369.64
2018-08-24T09:10:07.845Z,99370.94
2018-08-24T09:12:35.513Z,99370.16
2018-08-24T09:15:03.272Z,99370.55
2018-08-24T09:17:36.462Z,99371.03
2018-08-24T09:20:09.872Z,99369.34
2018-08-24T09:22:43.001Z,99357.48
2018-08-24T09:25:16.318Z,99355.33
2018-08-24T09:27:49.482Z,99352.20
2018-08-24T09:30:17.257Z,99347.28
2018-08-24T09:32:45.180Z,99356.47
2018-08-24T09:35:12.745Z,99352.70
2018-08-24T09:37:40.448Z,99339.01
2018-08-24T09:40:08.468Z,99355.05
2018-08-24T09:42:36.125Z,99343.56
2018-08-24T09:45:04.290Z,99347.88
2018-08-24T09:47:37.341Z,99345.16
2018-08-24T09:50:11.369Z,99341.94
2018-08-24T09:52:39.113Z,99338.22
2018-08-24T09:55:06.870Z,99332.55
2018-08-24T09:57:34.557Z,99334.76
2018-08-24T10:00:02.354Z,99324.45
2018-08-24T10:02:35.611Z,99327.71
2018-08-24T10:05:08.751Z,99325.78
2018-08-24T10:07:41.911Z,99324.42
2018-08-24T10:10:09.577Z,99320.16
2018-08-24T10:12:38.043Z,99326.16
2018-08-24T10:15:07.728Z,99320.58
2018-08-24T10:17:35.438Z,99320.22
2018-08-24T10:20:03.220Z,99320.86
2018-08-24T10:22:31.798Z,99304.91
2018-08-24T10:24:59.487Z,99310.71
2018-08-24T10:27:27.241Z,99308.58
2018-08-24T10:29:54.937Z,99302.83
2018-08-24T10:32:22.602Z,99304.08
2018-08-24T10:34:50.253Z,99294.36
2018-08-24T10:37:18.093Z,99289.19
2018-08-24T10:39:45.757Z,99282.41
2018-08-24T10:42:13.486Z,99292.42
2018-08-24T10:44:41.197Z,99282.11
2018-08-24T10:47:08.855Z,99280.03
2018-08-24T10:49:36.517Z,99276.66
2018-08-24T10:52:04.225Z,99275.52
2018-08-24T10:54:31.889Z,99270.63
2018-08-24T10:56:59.582Z,99271.55
2018-08-24T10:59:27.259Z,99271.81
2018-08-24T11:01:54.966Z,99275.19
2018-08-24T11:04:22.640Z,99262.45
2018-08-24T11:06:50.347Z,99267.63
2018-08-24T11:09:18.003Z,99261.78
2018-08-24T11:11:45.776Z,99263.09
2018-08-24T11:14:13.437Z,99250.08
2018-08-24T11:16:41.104Z,99253.64
2018-08-24T11:19:08.783Z,99249.59
2018-08-24T11:21:36.477Z,99245.58
2018-08-24T11:24:04.141Z,99234.66
2018-08-24T11:26:31.812Z,99234.95
2018-08-24T11:29:00.197Z,99228.66
2018-08-24T11:31:27.948Z,99225.34
2018-08-24T11:33:55.695Z,99219.90
2018-08-24T11:36:23.568Z,99221.16
2018-08-24T11:38:51.230Z,99214.39
2018-08-24T11:41:18.905Z,99215.86
2018-08-24T11:46:22.005Z,99205.56
2018-08-24T11:48:49.713Z,99201.08
2018-08-24T11:51:17.500Z,99203.14
2018-08-24T11:53:45.274Z,99205.52
2018-08-24T11:56:12.961Z,99202.23
2018-08-24T11:58:40.641Z,99193.52
2018-08-24T12:01:08.481Z,99198.16
2018-08-24T12:03:36.196Z,99199.03
2018-08-24T12:06:03.880Z,99194.57
2018-08-24T12:08:31.568Z,99184.95
2018-08-24T12:10:59.277Z,99175.91
2018-08-24T12:13:26.981Z,99176.36
2018-08-24T12:15:54.744Z,99181.23
2018-08-24T12:18:22.622Z,99175.72
2018-08-24T12:20:50.336Z,99168.98
2018-08-24T12:23:18.098Z,99159.69
2018-08-24T12:25:45.841Z,99162.19
2018-08-24T12:28:13.582Z,99160.38
2018-08-24T12:30:41.360Z,99158.25
2018-08-24T12:33:09.040Z,99157.13
2018-08-24T12:35:36.753Z,99142.16
2018-08-24T12:38:05.211Z,99140.89
2018-08-24T12:40:32.937Z,99146.86
2018-08-24T12:43:00.662Z,99136.36
2018-08-24T12:45:28.761Z,99140.83
2018-08-24T12:47:56.473Z,99142.28
2018-08-24T12:50:24.257Z,99136.86
2018-08-24T12:52:52.001Z,99135.39
2018-08-24T12:55:19.698Z,99124.97
2018-08-24T12:57:47.445Z,99119.41
2018-08-24T13:00:15.201Z,99119.45
2018-08-24T13:02:42.949Z,99115.73
2018-08-24T13:05:10.701Z,99118.35
2018-08-24T13:07:38.453Z,99114.09
2018-08-24T13:10:06.201Z,99117.25
2018-08-24T13:12:33.899Z,99110.95
2018-08-24T13:15:01.809Z,99111.66
2018-08-24T13:17:29.494Z,99111.30
2018-08-24T13:19:57.221Z,99109.77
2018-08-24T13:22:24.968Z,99107.97
2018-08-24T13:24:52.750Z,99106.05
2018-08-24T13:27:20.509Z,99112.78
2018-08-24T13:29:48.185Z,99102.98
2018-08-24T13:32:15.915Z,99098.02
2018-08-24T13:34:43.605Z,99100.39
2018-08-24T13:37:11.988Z,99093.76
2018-08-24T13:39:39.650Z,99095.30
2018-08-24T13:42:07.396Z,99101.03
2018-08-24T13:44:35.097Z,99094.20
2018-08-24T13:47:02.869Z,99098.08
2018-08-24T13:49:30.580Z,99096.36
2018-08-24T13:51:58.340Z,99095.41
2018-08-24T13:54:26.013Z,99095.19
2018-08-24T13:56:53.708Z,99089.99
2018-08-24T13:59:21.508Z,99091.92
2018-08-24T14:01:49.197Z,99092.38
2018-08-24T14:04:16.961Z,99089.59
2018-08-24T14:06:44.683Z,99090.74
2018-08-24T14:09:12.882Z,99087.61
2018-08-24T14:11:40.567Z,99086.82
2018-08-24T14:14:08.422Z,99080.13
2018-08-24T14:16:36.577Z,99072.07
2018-08-24T14:19:04.335Z,99074.27
2018-08-24T14:21:32.122Z,99073.61
2018-08-24T14:23:59.852Z,99073.03
2018-08-24T14:26:27.559Z,99072.13
2018-08-24T14:28:55.650Z,99067.17
2018-08-24T14:31:23.385Z,99061.06
2018-08-24T14:33:51.048Z,99064.06
2018-08-24T14:36:18.796Z,99062.48
2018-08-24T14:38:46.583Z,99060.42
2018-08-24T14:41:14.339Z,99062.64
2018-08-24T14:43:42.102Z,99057.64
2018-08-24T14:46:09.799Z,99055.64
2018-08-24T14:48:37.603Z,99057.69
2018-08-24T14:51:05.468Z,99052.09
2018-08-24T14:53:33.313Z,99050.78
2018-08-24T14:56:01.014Z,99049.70
2018-08-24T14:58:28.709Z,99044.47
2018-08-24T15:00:56.414Z,99040.78
2018-08-24T15:03:24.081Z,99036.16
2018-08-24T15:05:51.770Z,99030.23
2018-08-24T15:08:19.429Z,99026.86
2018-08-24T15:10:47.094Z,99028.27
2018-08-24T15:13:14.816Z,99034.96
2018-08-24T15:15:42.480Z,99023.83
2018-08-24T15:18:10.135Z,99018.70
2018-08-24T15:20:37.849Z,99020.73
2018-08-24T15:23:05.548Z,99029.28
2018-08-24T15:25:33.279Z,99023.53
2018-08-24T15:28:00.962Z,99022.36
2018-08-24T15:30:28.625Z,99024.70
2018-08-24T15:32:56.287Z,99026.96
2018-08-24T15:35:23.993Z,99026.53
2018-08-24T15:37:51.646Z,99019.84
2018-08-24T15:40:19.307Z,99020.11
2018-08-24T15:42:47.218Z,99018.81
2018-08-24T15:45:14.881Z,99021.69
2018-08-24T15:47:42.590Z,99018.41
2018-08-24T15:50:10.318Z,99019.74
2018-08-24T15:52:38.000Z,99016.70
2018-08-24T15:55:05.943Z,99009.09
2018-08-24T15:57:33.631Z,99011.45
2018-08-24T16:00:01.355Z,99009.87
2018-08-24T16:02:28.998Z,99014.42
2018-08-24T16:04:56.701Z,99013.43
2018-08-24T16:07:24.388Z,99018.63
2018-08-24T16:09:52.042Z,99020.77
2018-08-24T16:12:19.834Z,99015.83
2018-08-24T16:14:48.355Z,99016.33
2018-08-24T16:17:16.009Z,99020.00
2018-08-24T16:19:43.694Z,99019.84
2018-08-24T16:22:11.833Z,99021.62
2018-08-24T16:24:39.410Z,99032.87
2018-08-24T16:27:09.003Z,99034.16
2018-08-24T16:29:36.694Z,99023.87
2018-08-24T16:32:04.502Z,99031.61
2018-08-24T16:34:32.189Z,99028.34
2018-08-24T16:36:59.897Z,99031.72
2018-08-24T16:39:27.590Z,99037.11
2018-08-24T16:41:55.294Z,99033.85
2018-08-24T16:44:22.937Z,99040.67
2018-08-24T16:46:50.635Z,99041.52
2018-08-24T16:49:18.392Z,99038.27
2018-08-24T16:51:46.053Z,99038.09
2018-08-24T16:54:13.717Z,99043.45
2018-08-24T16:56:41.394Z,99042.55
2018-08-24T16:59:09.050Z,99039.97
2018-08-24T17:01:36.704Z,99041.17
2018-08-24T17:04:04.433Z,99043.05
2018-08-24T17:06:32.085Z,99046.56
2018-08-24T17:08:59.731Z,99039.84
2018-08-24T17:11:27.410Z,99041.83
2018-08-24T17:13:55.071Z,99040.09
2018-08-24T17:16:23.025Z,99043.80
2018-08-24T17:18:50.774Z,99049.33
2018-08-24T17:21:18.462Z,99049.69
2018-08-24T17:23:46.178Z,99045.74
2018-08-24T17:26:13.910Z,99050.90
2018-08-24T17:28:41.620Z,99046.30
2018-08-24T17:31:09.338Z,99051.29
2018-08-24T17:33:37.060Z,99054.47
2018-08-24T17:36:04.824Z,99047.98
2018-08-24T17:38:32.535Z,99049.91
2018-08-24T17:41:00.273Z,99053.64
2018-08-24T17:43:27.972Z,99051.45
2018-08-24T17:45:55.617Z,99057.36
2018-08-24T17:48:23.337Z,99056.72
2018-08-24T17:50:51.030Z,99057.36
2018-08-24T17:53:18.724Z,99065.27
2018-08-24T17:55:46.490Z,99062.80
2018-08-24T17:58:14.174Z,99064.92
2018-08-24T18:00:41.874Z,99068.70
2018-08-24T18:03:09.582Z,99072.20
2018-08-24T18:05:37.302Z,99077.25
2018-08-24T18:08:05.246Z,99079.43
2018-08-24T18:10:33.018Z,99080.05
2018-08-24T18:13:00.772Z,99083.79
2018-08-24T18:15:28.479Z,99080.25
2018-08-24T18:17:56.214Z,99081.91
2018-08-24T18:20:23.923Z,99085.77
2018-08-24T18:22:51.644Z,99082.09
2018-08-24T18:25:19.346Z,99081.52
2018-08-24T18:27:47.031Z,99089.20
2018-08-24T18:30:14.744Z,99084.25
2018-08-24T18:32:42.520Z,99087.89
2018-08-24T18:35:10.217Z,99089.78
2018-08-24T18:37:37.941Z,99091.16
2018-08-24T18:40:06.221Z,99093.38
2018-08-24T18:42:33.901Z,99090.06
2018-08-24T18:45:01.618Z,99096.30
2018-08-24T18:47:29.385Z,99093.48
2018-08-24T18:49:57.079Z,99088.47
2018-08-24T18:52:24.789Z,99097.48
2018-08-24T18:54:52.513Z,99091.88
2018-08-24T18:57:20.237Z,99097.67
2018-08-24T18:59:47.937Z,99098.09
2018-08-24T19:02:15.765Z,99099.38
2018-08-24T19:04:43.472Z,99100.98
2018-08-24T19:07:11.182Z,99108.16
2018-08-24T19:09:38.925Z,99102.83
2018-08-24T19:12:12.134Z,99109.40
2018-08-24T19:14:39.923Z,99107.06
2018-08-24T19:17:12.157Z,99115.22
2018-08-24T19:19:45.438Z,99117.64
2018-08-24T19:22:13.156Z,99111.95
2018-08-24T19:24:40.861Z,99112.56
2018-08-24T19:27:08.613Z,99117.63
2018-08-24T19:29:41.746Z,99114.04
2018-08-24T19:32:09.476Z,99114.17
2018-08-24T19:34:37.245Z,99111.45
2018-08-24T19:37:04.947Z,99113.71
2018-08-24T19:39:32.718Z,99113.67
2018-08-24T19:42:06.029Z,99112.17
2018-08-24T19:44:33.769Z,99112.88
2018-08-24T19:47:01.469Z,99114.06
2018-08-24T19:49:29.232Z,99109.83
2018-08-24T19:51:56.930Z,99112.27
2018-08-24T19:54:24.589Z,99111.92
2018-08-24T19:56:52.252Z,99115.70
2018-08-24T19:59:20.025Z,99111.75
2018-08-24T20:01:47.765Z,99112.34
2018-08-24T20:04:15.464Z,99114.12
2018-08-24T20:06:48.582Z,99108.58
2018-08-24T20:09:21.828Z,99106.56
2018-08-24T20:11:50.769Z,99108.62
2018-08-24T20:14:23.898Z,99111.97
2018-08-24T20:16:57.321Z,99119.04
2018-08-24T20:19:25.171Z,99124.19
2018-08-24T20:21:52.895Z,99123.59
2018-08-24T20:24:20.897Z,99123.32
2018-08-24T20:26:49.194Z,99115.52
2018-08-24T20:29:17.297Z,99116.41
2018-08-24T20:31:45.045Z,99119.70
2018-08-24T20:34:12.796Z,99116.80
2018-08-24T20:36:40.465Z,99116.93
2018-08-24T20:39:09.265Z,99114.33
2018-08-24T20:41:36.949Z,99114.14
2018-08-24T20:44:04.697Z,99116.28
2018-08-24T20:46:32.465Z,99113.06
2018-08-24T20:49:00.197Z,99118.14
2018-08-24T20:51:27.876Z,99119.19
2018-08-24T20:53:55.621Z,99114.78
2018-08-24T20:56:23.282Z,99116.16
2018-08-24T20:58:50.990Z,99119.02
2018-08-24T21:01:18.804Z,99113.59
2018-08-24T21:03:46.486Z,99115.11
2018-08-24T21:06:14.201Z,99109.13
2018-08-24T21:08:41.896Z,99115.14
2018-08-24T21:11:09.557Z,99112.08
2018-08-24T21:13:37.245Z,99116.63
2018-08-24T21:16:05.029Z,99118.67
2018-08-24T21:18:32.746Z,99115.95
2018-08-24T21:21:00.593Z,99119.89
2018-08-24T21:23:28.564Z,99121.75
2018-08-24T21:25:56.265Z,99124.20
2018-08-24T21:28:24.362Z,99122.45
2018-08-24T21:30:52.093Z,99127.81
2018-08-24T21:33:19.744Z,99126.52
2018-08-24T21:35:47.428Z,99119.16
2018-08-24T21:38:15.173Z,99122.32
2018-08-24T21:40:43.018Z,99128.05
2018-08-24T21:43:10.756Z,99123.17
2018-08-24T21:45:38.553Z,99119.75
2018-08-24T21:48:06.321Z,99120.52
2018-08-24T21:50:34.007Z,99121.28
2018-08-24T21:53:01.744Z,99114.02
2018-08-24T21:55:29.418Z,99114.32
2018-08-24T21:57:57.173Z,99111.84
2018-08-24T22:00:25.010Z,99112.95
2018-08-24T22:02:52.682Z,99106.97
2018-08-24T22:05:20.345Z,99105.44
2018-08-24T22:07:48.062Z,99104.28
2018-08-24T22:10:15.742Z,99107.89
2018-08-24T22:12:43.418Z,99104.04
2018-08-24T22:15:11.119Z,99101.34
2018-08-24T22:17:38.766Z,99096.93
2018-08-24T22:20:06.493Z,99094.67
2018-08-24T22:22:34.204Z,99100.84
2018-08-24T22:25:01.886Z,99091.00
2018-08-24T22:27:29.557Z,99093.91
2018-08-24T22:29:57.337Z,99092.26
2018-08-24T22:32:25.026Z,99085.64
2018-08-24T22:34:52.726Z,99089.70
2018-08-24T22:37:20.424Z,99084.55
2018-08-24T22:39:48.086Z,99081.13
2018-08-24T22:42:15.737Z,99074.98
2018-08-24T22:44:43.422Z,99072.16
2018-08-24T22:47:11.122Z,99076.38
2018-08-24T22:49:38.789Z,99072.98
2018-08-24T22:52:06.572Z,99073.92
2018-08-24T22:54:34.236Z,99066.53
2018-08-24T22:57:02.018Z,99073.20
2018-08-24T22:59:29.759Z,99072.73
2018-08-24T23:01:57.410Z,99074.30
2018-08-24T23:04:25.066Z,99069.31
2018-08-24T23:06:52.750Z,99077.38
2018-08-24T23:09:20.414Z,99072.00
2018-08-24T23:11:48.061Z,99063.52
2018-08-24T23:14:15.742Z,99070.56
2018-08-24T23:16:43.410Z,99064.12
2018-08-24T23:19:11.076Z,99058.81
2018-08-24T23:21:38.754Z,99063.53
2018-08-24T23:24:06.450Z,99059.12
2018-08-24T23:26:34.129Z,99058.09
2018-08-24T23:29:01.836Z,99058.45
2018-08-24T23:31:29.487Z,99058.87
2018-08-24T23:33:57.183Z,99054.70
2018-08-24T23:36:24.939Z,99056.56
2018-08-24T23:38:52.634Z,99056.05
2018-08-24T23:41:20.299Z,99057.94
2018-08-24T23:43:48.079Z,99057.09
2018-08-24T23:46:15.913Z,99054.32
2018-08-24T23:48:43.570Z,99045.91
2018-08-24T23:51:11.261Z,99045.88
2018-08-24T23:53:38.916Z,99038.97
2018-08-24T23:56:06.601Z,99039.88
2018-08-24T23:58:34.287Z,99042.60
